createdAt,value
2023-01-04T00:01:20.279Z,3.70
2023-01-04T00:03:47.324Z,3.60
2023-01-04T00:06:16.181Z,3.60
2023-01-04T00:08:43.376Z,3.60
2023-01-04T00:11:21.828Z,3.50
2023-01-04T00:13:51.210Z,3.50
2023-01-04T00:16:21.276Z,3.40
2023-01-04T00:18:48.263Z,3.40
2023-01-04T00:21:23.886Z,3.40
2023-01-04T00:23:53.756Z,3.30
2023-01-04T00:26:25.900Z,3.40
2023-01-04T00:29:00.134Z,3.30
2023-01-04T00:31:28.486Z,3.30
2023-01-04T00:33:56.851Z,3.20
2023-01-04T00:36:24.004Z,3.20
2023-01-04T00:39:07.486Z,3.20
2023-01-04T00:42:01.759Z,3.20
2023-01-04T00:44:30.056Z,3.10
2023-01-04T00:46:57.294Z,3.10
2023-01-04T00:49:24.390Z,3.10
2023-01-04T00:51:51.400Z,3.10
2023-01-04T00:54:18.849Z,3.00
2023-01-04T00:56:45.726Z,3.00
2023-01-04T00:59:14.890Z,3.00
2023-01-04T01:01:42.583Z,2.90
2023-01-04T01:04:12.440Z,3.00
2023-01-04T01:06:39.353Z,2.90
2023-01-04T01:09:06.274Z,2.90
2023-01-04T01:11:33.312Z,2.80
2023-01-04T01:14:00.039Z,2.80
2023-01-04T01:16:53.080Z,2.70
2023-01-04T01:19:14.738Z,2.70
2023-01-04T01:21:41.545Z,2.70
2023-01-04T01:24:15.883Z,2.60
2023-01-04T01:26:42.690Z,2.60
2023-01-04T01:29:09.538Z,2.60
2023-01-04T01:31:36.325Z,2.60
2023-01-04T01:34:03.282Z,2.50
2023-01-04T01:36:29.983Z,2.50
2023-01-04T01:38:56.658Z,2.50
2023-01-04T01:41:26.702Z,2.50
2023-01-04T01:44:01.138Z,2.40
2023-01-04T01:47:03.347Z,2.40
2023-01-04T01:49:35.972Z,2.30
2023-01-04T01:52:06.583Z,2.30
2023-01-04T01:54:36.090Z,2.30
2023-01-04T01:57:07.370Z,2.30
2023-01-04T01:59:40.611Z,2.20
2023-01-04T02:02:07.565Z,2.20
2023-01-04T02:04:37.183Z,2.20
2023-01-04T02:07:04.433Z,2.30
2023-01-04T02:09:32.353Z,2.30
2023-01-04T02:11:59.215Z,2.50
2023-01-04T02:14:29.721Z,2.60
2023-01-04T02:16:56.689Z,2.70
2023-01-04T02:19:48.763Z,2.80
2023-01-04T02:22:39.793Z,2.90
2023-01-04T02:25:24.557Z,2.90
2023-01-04T02:27:58.269Z,3.00
2023-01-04T02:31:05.992Z,3.00
2023-01-04T02:33:43.619Z,3.10
2023-01-04T02:36:34.462Z,3.10
2023-01-04T02:39:18.158Z,3.10
2023-01-04T02:41:56.530Z,3.10
2023-01-04T02:44:53.980Z,3.20
2023-01-04T02:47:44.353Z,3.20
2023-01-04T02:50:33.543Z,3.20
2023-01-04T02:53:22.587Z,3.20
2023-01-04T02:55:55.056Z,3.20
2023-01-04T02:58:36.334Z,3.20
2023-01-04T03:02:05.354Z,3.20
2023-01-04T03:05:29.858Z,3.30
2023-01-04T03:07:56.508Z,3.30
2023-01-04T03:10:53.897Z,3.30
2023-01-04T03:13:34.027Z,3.40
2023-01-04T03:16:09.561Z,3.50
2023-01-04T03:18:41.480Z,3.60
2023-01-04T03:21:11.305Z,3.60
2023-01-04T03:23:57.998Z,3.70
2023-01-04T03:26:46.624Z,3.70
2023-01-04T03:29:38.139Z,3.80
2023-01-04T03:32:29.583Z,3.70
2023-01-04T03:35:15.629Z,3.70
2023-01-04T03:38:23.352Z,3.80
2023-01-04T03:41:18.457Z,3.80
2023-01-04T03:44:13.648Z,3.80
2023-01-04T03:47:12.455Z,3.80
2023-01-04T03:49:57.333Z,3.80
2023-01-04T03:52:26.993Z,3.80
2023-01-04T03:54:56.575Z,3.70
2023-01-04T03:57:25.413Z,3.70
2023-01-04T04:00:01.915Z,3.80
2023-01-04T04:02:30.512Z,3.80
2023-01-04T04:05:16.275Z,3.80
2023-01-04T04:08:01.812Z,3.80
2023-01-04T04:10:28.518Z,3.80
2023-01-04T04:12:55.225Z,3.80
2023-01-04T04:15:21.920Z,3.80
2023-01-04T04:17:48.640Z,3.70
2023-01-04T04:20:15.446Z,3.70
2023-01-04T04:22:42.158Z,3.60
2023-01-04T04:25:09.220Z,3.50
2023-01-04T04:27:36.107Z,3.50
2023-01-04T04:30:03.809Z,3.40
2023-01-04T04:32:30.501Z,3.30
2023-01-04T04:34:57.261Z,3.30
2023-01-04T04:37:25.126Z,3.20
2023-01-04T04:39:51.875Z,3.20
2023-01-04T04:42:18.600Z,3.20
2023-01-04T04:44:45.298Z,3.10
2023-01-04T04:47:11.981Z,3.10
2023-01-04T04:49:39.018Z,3.00
2023-01-04T04:52:05.734Z,3.00
2023-01-04T04:54:32.480Z,2.90
2023-01-04T04:56:59.181Z,2.90
2023-01-04T04:59:26.071Z,2.80
2023-01-04T05:01:52.877Z,2.80
2023-01-04T05:04:19.934Z,2.80
2023-01-04T05:06:49.029Z,2.70
2023-01-04T05:09:16.815Z,2.70
2023-01-04T05:12:02.101Z,2.70
2023-01-04T05:14:28.992Z,2.70
2023-01-04T05:19:23.632Z,2.60
2023-01-04T05:21:50.385Z,2.60
2023-01-04T05:24:17.166Z,2.60
2023-01-04T05:26:43.859Z,2.60
2023-01-04T05:29:30.540Z,2.60
2023-01-04T05:31:57.366Z,2.50
2023-01-04T05:34:24.140Z,2.50
2023-01-04T05:36:51.069Z,2.50
2023-01-04T05:39:17.897Z,2.50
2023-01-04T05:42:02.898Z,2.50
2023-01-04T05:44:29.731Z,2.50
2023-01-04T05:46:56.519Z,2.50
2023-01-04T05:49:23.194Z,2.50
2023-01-04T05:51:49.891Z,2.50
2023-01-04T05:54:21.085Z,2.50
2023-01-04T05:56:48.279Z,2.50
2023-01-04T05:59:16.278Z,2.50
2023-01-04T06:01:43.182Z,2.50
2023-01-04T06:04:10.118Z,2.50
2023-01-04T06:06:37.003Z,2.60
2023-01-04T06:09:03.935Z,2.60
2023-01-04T06:11:30.667Z,2.60
2023-01-04T06:13:58.428Z,2.70
2023-01-04T06:16:25.384Z,2.80
2023-01-04T06:18:52.151Z,2.90
2023-01-04T06:21:18.841Z,2.90
2023-01-04T06:23:45.682Z,3.00
2023-01-04T06:26:12.599Z,3.10
2023-01-04T06:28:41.221Z,3.20
2023-01-04T06:31:09.782Z,3.30
2023-01-04T06:33:37.026Z,3.30
2023-01-04T06:36:05.962Z,3.40
2023-01-04T06:38:33.805Z,3.40
2023-01-04T06:41:00.791Z,3.50
2023-01-04T06:43:27.721Z,3.50
2023-01-04T06:45:54.554Z,3.60
2023-01-04T06:48:21.315Z,3.60
2023-01-04T06:50:48.037Z,3.60
2023-01-04T06:53:14.806Z,3.60
2023-01-04T06:55:43.328Z,3.60
2023-01-04T06:58:10.047Z,3.50
2023-01-04T07:00:36.761Z,3.40
2023-01-04T07:03:14.144Z,3.40
2023-01-04T07:05:42.916Z,3.30
2023-01-04T07:08:09.669Z,3.20
2023-01-04T07:10:37.142Z,3.10
2023-01-04T07:13:03.989Z,3.10
2023-01-04T07:15:39.274Z,3.10
2023-01-04T07:18:08.085Z,3.00
2023-01-04T07:20:35.010Z,3.00
2023-01-04T07:23:01.697Z,2.90
2023-01-04T07:25:28.443Z,2.90
2023-01-04T07:27:55.903Z,2.80
2023-01-04T07:30:23.930Z,2.80
2023-01-04T07:32:55.156Z,2.80
2023-01-04T07:35:22.913Z,2.80
2023-01-04T07:37:57.477Z,2.80
2023-01-04T07:40:25.620Z,2.80
2023-01-04T07:42:59.805Z,2.90
2023-01-04T07:45:27.552Z,2.90
2023-01-04T07:47:54.310Z,2.90
2023-01-04T07:50:21.045Z,3.00
2023-01-04T07:52:47.809Z,3.00
2023-01-04T07:55:14.633Z,3.00
2023-01-04T07:57:41.384Z,3.10
2023-01-04T08:00:08.934Z,3.20
2023-01-04T08:02:35.884Z,3.30
2023-01-04T08:05:03.247Z,3.40
2023-01-04T08:07:30.011Z,3.50
2023-01-04T08:09:56.760Z,3.70
2023-01-04T08:12:23.490Z,3.80
2023-01-04T08:14:50.271Z,3.90
2023-01-04T08:17:16.933Z,4.00
2023-01-04T08:19:43.724Z,4.10
2023-01-04T08:22:10.458Z,4.30
2023-01-04T08:24:37.191Z,4.40
2023-01-04T08:27:03.970Z,4.60
2023-01-04T08:29:34.722Z,4.80
2023-01-04T08:32:01.847Z,4.90
2023-01-04T08:34:29.776Z,4.90
2023-01-04T08:36:56.641Z,5.10
2023-01-04T08:39:23.376Z,5.30
2023-01-04T08:42:00.716Z,5.80
2023-01-04T08:44:31.820Z,6.30
2023-01-04T08:46:58.984Z,6.70
2023-01-04T08:49:26.476Z,7.30
2023-01-04T08:51:53.247Z,8.10
2023-01-04T08:54:20.165Z,8.70
2023-01-04T08:56:46.986Z,9.90
2023-01-04T08:59:14.055Z,11.10
2023-01-04T09:01:41.246Z,12.30
2023-01-04T09:04:08.548Z,13.20
2023-01-04T09:06:36.592Z,13.10
2023-01-04T09:09:03.451Z,12.90
2023-01-04T09:11:30.184Z,12.50
2023-01-04T09:14:08.089Z,12.10
2023-01-04T09:16:37.340Z,11.60
2023-01-04T09:19:05.209Z,10.90
2023-01-04T09:21:32.062Z,10.80
2023-01-04T09:23:59.252Z,10.70
2023-01-04T09:26:26.188Z,10.60
2023-01-04T09:28:54.494Z,10.60
2023-01-04T09:31:24.100Z,10.70
2023-01-04T09:36:38.027Z,11.10
2023-01-04T09:39:04.891Z,11.30
2023-01-04T09:41:51.145Z,11.40
2023-01-04T09:44:39.702Z,11.60
2023-01-04T09:47:19.972Z,11.60
2023-01-04T09:49:50.221Z,11.80
2023-01-04T09:52:22.994Z,11.90
2023-01-04T09:55:03.006Z,11.90
2023-01-04T09:57:52.445Z,11.90
2023-01-04T10:00:25.372Z,11.80
2023-01-04T10:03:00.336Z,11.80
2023-01-04T10:05:30.105Z,11.60
2023-01-04T10:07:57.259Z,11.50
2023-01-04T10:10:42.653Z,11.40
2023-01-04T10:13:50.970Z,11.30
2023-01-04T10:17:12.029Z,11.20
2023-01-04T10:21:17.712Z,11.20
2023-01-04T10:23:06.271Z,11.10
2023-01-04T10:25:54.851Z,11.00
2023-01-04T10:28:33.490Z,11.00
2023-01-04T10:31:39.287Z,11.00
2023-01-04T10:33:58.501Z,11.10
2023-01-04T10:36:31.678Z,11.30
2023-01-04T10:39:05.065Z,11.40
2023-01-04T10:41:43.120Z,11.60
2023-01-04T10:44:15.555Z,11.80
2023-01-04T10:47:04.241Z,12.00
2023-01-04T10:49:33.944Z,12.20
2023-01-04T10:52:17.058Z,12.10
2023-01-04T10:55:06.921Z,11.90
2023-01-04T10:57:36.326Z,11.70
2023-01-04T11:00:09.125Z,11.40
2023-01-04T11:02:41.006Z,11.10
2023-01-04T11:05:32.944Z,10.90
2023-01-04T11:08:29.248Z,10.70
2023-01-04T11:10:57.655Z,10.50
2023-01-04T11:13:25.011Z,10.30
2023-01-04T11:15:52.929Z,10.20
2023-01-04T11:18:20.020Z,10.00
2023-01-04T11:20:47.183Z,10.00
2023-01-04T11:23:16.694Z,10.00
2023-01-04T11:25:56.063Z,9.90
2023-01-04T11:28:48.710Z,9.90
2023-01-04T11:31:28.941Z,9.90
2023-01-04T11:34:01.252Z,9.80
2023-01-04T11:36:31.098Z,9.80
2023-01-04T11:38:58.477Z,9.70
2023-01-04T11:41:26.169Z,9.70
2023-01-04T11:44:02.041Z,9.70
2023-01-04T11:46:30.368Z,9.70
2023-01-04T11:48:57.218Z,9.70
2023-01-04T11:51:27.058Z,9.80
2023-01-04T11:53:59.084Z,9.90
2023-01-04T11:56:29.432Z,9.90
2023-01-04T11:59:08.248Z,9.90
2023-01-04T12:01:37.971Z,10.00
2023-01-04T12:04:11.418Z,10.10
2023-01-04T12:06:41.190Z,10.20
2023-01-04T12:09:15.031Z,10.40
2023-01-04T12:11:54.662Z,10.50
2023-01-04T12:14:27.196Z,10.60
2023-01-04T12:17:05.712Z,10.70
2023-01-04T12:19:32.672Z,10.70
2023-01-04T12:22:02.538Z,10.80
2023-01-04T12:24:32.081Z,10.80
2023-01-04T12:27:00.563Z,10.80
2023-01-04T12:29:40.252Z,10.80
2023-01-04T12:32:06.894Z,10.80
2023-01-04T12:34:34.305Z,10.70
2023-01-04T12:37:05.567Z,10.70
2023-01-04T12:39:45.266Z,10.60
2023-01-04T12:42:19.175Z,10.60
2023-01-04T12:44:51.839Z,10.60
2023-01-04T12:47:37.308Z,10.60
2023-01-04T12:50:08.298Z,10.70
2023-01-04T12:55:44.882Z,10.70
2023-01-04T13:01:24.789Z,10.80
2023-01-04T13:04:02.540Z,10.80
2023-01-04T13:06:35.798Z,10.80
2023-01-04T13:09:02.751Z,10.80
2023-01-04T13:11:51.877Z,10.80
2023-01-04T13:14:33.021Z,10.80
2023-01-04T13:17:21.698Z,10.80
2023-01-04T13:19:49.211Z,10.90
2023-01-04T13:22:35.954Z,10.90
2023-01-04T13:25:04.777Z,10.90
2023-01-04T13:27:31.648Z,10.90
2023-01-04T13:29:59.054Z,11.00
2023-01-04T13:32:32.044Z,11.00
2023-01-04T13:35:14.788Z,11.00
2023-01-04T13:37:46.572Z,11.10
2023-01-04T13:40:49.334Z,11.10
2023-01-04T13:43:16.424Z,11.10
2023-01-04T13:45:46.037Z,11.10
2023-01-04T13:48:15.882Z,11.10
2023-01-04T13:50:48.700Z,11.10
2023-01-04T13:53:24.709Z,11.10
2023-01-04T13:55:54.550Z,11.10
2023-01-04T13:58:23.762Z,11.00
2023-01-04T14:00:55.755Z,10.90
2023-01-04T14:03:35.759Z,10.90
2023-01-04T14:06:20.084Z,10.90
2023-01-04T14:08:54.096Z,10.90
2023-01-04T14:11:44.422Z,10.90
2023-01-04T14:14:29.164Z,10.90
2023-01-04T14:17:22.067Z,10.90
2023-01-04T14:20:04.485Z,10.80
2023-01-04T14:22:36.025Z,10.80
2023-01-04T14:25:35.842Z,10.80
2023-01-04T14:28:22.499Z,10.80
2023-01-04T14:30:59.237Z,10.70
2023-01-04T14:33:40.908Z,10.70
2023-01-04T14:36:10.445Z,10.70
2023-01-04T14:38:48.194Z,10.60
2023-01-04T14:41:34.769Z,10.70
2023-01-04T14:44:01.439Z,10.60
2023-01-04T14:46:32.521Z,10.60
2023-01-04T14:48:59.691Z,10.60
2023-01-04T14:51:52.089Z,10.60
2023-01-04T14:54:24.940Z,10.60
2023-01-04T14:56:53.867Z,10.60
2023-01-04T14:59:23.625Z,10.60
2023-01-04T15:01:53.284Z,10.60
2023-01-04T15:04:20.287Z,10.50
2023-01-04T15:06:57.291Z,10.50
2023-01-04T15:09:24.880Z,10.50
2023-01-04T15:11:51.818Z,10.50
2023-01-04T15:14:19.096Z,10.50
2023-01-04T15:16:46.129Z,10.50
2023-01-04T15:19:12.875Z,10.50
2023-01-04T15:21:41.557Z,10.40
2023-01-04T15:24:10.049Z,10.40
2023-01-04T15:26:37.859Z,10.40
2023-01-04T15:29:06.626Z,10.40
2023-01-04T15:31:38.750Z,10.30
2023-01-04T15:34:06.393Z,10.30
2023-01-04T15:36:33.218Z,10.20
2023-01-04T15:39:00.004Z,10.20
2023-01-04T15:41:45.163Z,10.10
2023-01-04T15:44:12.172Z,10.10
2023-01-04T15:46:39.210Z,10.00
2023-01-04T15:49:08.259Z,10.00
2023-01-04T15:51:37.430Z,10.00
2023-01-04T15:54:04.275Z,10.00
2023-01-04T15:56:31.030Z,10.00
2023-01-04T15:58:57.776Z,9.90
2023-01-04T16:01:24.582Z,9.90
2023-01-04T16:03:53.919Z,9.80
2023-01-04T16:06:21.369Z,9.80
2023-01-04T16:08:50.444Z,9.70
2023-01-04T16:11:18.573Z,9.70
2023-01-04T16:13:48.732Z,9.60
2023-01-04T16:16:16.276Z,9.60
2023-01-04T16:18:48.111Z,9.60
2023-01-04T16:21:17.013Z,9.70
2023-01-04T16:23:43.784Z,9.70
2023-01-04T16:26:13.983Z,9.70
2023-01-04T16:28:41.426Z,9.70
2023-01-04T16:31:09.543Z,9.70
2023-01-04T16:33:36.498Z,9.70
2023-01-04T16:36:09.618Z,9.70
2023-01-04T16:38:37.973Z,9.70
2023-01-04T16:41:06.705Z,9.70
2023-01-04T16:43:43.404Z,9.70
2023-01-04T16:46:13.301Z,9.70
2023-01-04T16:49:13.852Z,9.70
2023-01-04T16:51:41.624Z,9.70
2023-01-04T16:54:13.569Z,9.70
2023-01-04T16:56:42.141Z,9.70
2023-01-04T16:59:11.237Z,9.70
2023-01-04T17:01:44.216Z,9.70
2023-01-04T17:04:15.742Z,9.70
2023-01-04T17:06:44.992Z,9.70
2023-01-04T17:09:21.451Z,9.70
2023-01-04T17:14:43.929Z,9.70
2023-01-04T17:17:10.745Z,9.70
2023-01-04T17:22:12.290Z,9.70
2023-01-04T17:24:39.081Z,9.70
2023-01-04T17:27:06.094Z,9.80
2023-01-04T17:29:32.836Z,9.70
2023-01-04T17:31:59.641Z,9.80
2023-01-04T17:34:26.373Z,9.80
2023-01-04T17:36:53.145Z,9.80
2023-01-04T17:39:20.989Z,9.80
2023-01-04T17:41:47.818Z,9.80
2023-01-04T17:44:14.504Z,9.80
2023-01-04T17:46:41.869Z,9.70
2023-01-04T17:49:31.337Z,9.80
2023-01-04T17:51:58.314Z,9.80
2023-01-04T17:54:25.650Z,9.80
2023-01-04T17:56:52.649Z,9.70
2023-01-04T17:59:19.398Z,9.70
2023-01-04T18:01:46.191Z,9.70
2023-01-04T18:04:13.116Z,9.70
2023-01-04T18:06:39.981Z,9.70
2023-01-04T18:09:08.952Z,9.70
2023-01-04T18:11:36.494Z,9.70
2023-01-04T18:14:06.362Z,9.70
2023-01-04T18:16:56.693Z,9.70
2023-01-04T18:19:26.519Z,9.70
2023-01-04T18:21:53.304Z,9.70
2023-01-04T18:24:37.448Z,9.70
2023-01-04T18:27:26.400Z,9.80
2023-01-04T18:29:55.458Z,9.70
2023-01-04T18:32:23.735Z,9.70
2023-01-04T18:34:50.528Z,9.70
2023-01-04T18:37:18.571Z,9.70
2023-01-04T18:39:46.066Z,9.70
2023-01-04T18:42:12.828Z,9.70
2023-01-04T18:44:45.732Z,9.70
2023-01-04T18:47:15.638Z,9.70
2023-01-04T18:49:42.338Z,9.70
2023-01-04T18:52:09.099Z,9.70
2023-01-04T18:54:35.795Z,9.70
2023-01-04T18:57:02.587Z,9.70
2023-01-04T18:59:30.169Z,9.70
2023-01-04T19:02:01.230Z,9.70
2023-01-04T19:04:30.619Z,9.70
2023-01-04T19:06:57.721Z,9.80
2023-01-04T19:09:24.557Z,9.80
2023-01-04T19:11:51.357Z,9.80
2023-01-04T19:14:18.171Z,9.80
2023-01-04T19:16:45.064Z,9.80
2023-01-04T19:19:11.866Z,9.80
2023-01-04T19:21:38.702Z,9.80
2023-01-04T19:24:05.545Z,9.80
2023-01-04T19:26:32.320Z,9.80
2023-01-04T19:28:59.027Z,9.80
2023-01-04T19:31:25.784Z,9.80
2023-01-04T19:33:52.496Z,9.80
2023-01-04T19:36:19.749Z,9.80
2023-01-04T19:38:46.540Z,9.80
2023-01-04T19:41:21.089Z,9.80
2023-01-04T19:43:48.059Z,9.80
2023-01-04T19:46:15.530Z,9.70
2023-01-04T19:48:42.979Z,9.70
2023-01-04T19:51:13.599Z,9.70
2023-01-04T19:53:41.349Z,9.70
2023-01-04T19:56:09.513Z,9.80
2023-01-04T19:58:37.772Z,9.80
2023-01-04T20:01:05.563Z,9.80
2023-01-04T20:03:33.027Z,9.80
2023-01-04T20:06:04.187Z,9.90
2023-01-04T20:08:31.673Z,9.90
2023-01-04T20:10:59.589Z,9.90
2023-01-04T20:13:27.552Z,9.90
2023-01-04T20:15:54.565Z,9.90
2023-01-04T20:18:23.809Z,10.00
2023-01-04T20:20:52.141Z,10.00
2023-01-04T20:23:21.564Z,10.10
2023-01-04T20:25:51.050Z,10.20
2023-01-04T20:28:19.935Z,10.30
2023-01-04T20:30:47.250Z,10.30
2023-01-04T20:33:14.178Z,10.40
2023-01-04T20:35:44.834Z,10.50
2023-01-04T20:38:12.230Z,10.50
2023-01-04T20:40:39.229Z,10.50
2023-01-04T20:43:25.034Z,10.60
2023-01-04T20:45:51.892Z,10.60
2023-01-04T20:48:18.718Z,10.70
2023-01-04T20:50:45.737Z,10.70
2023-01-04T20:53:13.558Z,10.70
2023-01-04T20:55:41.969Z,10.80
2023-01-04T20:58:10.574Z,10.80
2023-01-04T21:00:38.236Z,10.80
2023-01-04T21:03:06.678Z,10.80
2023-01-04T21:05:44.678Z,10.80
2023-01-04T21:08:12.747Z,10.90
2023-01-04T21:10:43.922Z,10.90
2023-01-04T21:13:11.846Z,10.90
2023-01-04T21:15:39.231Z,10.90
2023-01-04T21:18:06.852Z,10.90
2023-01-04T21:20:33.993Z,10.90
2023-01-04T21:23:00.784Z,11.00
2023-01-04T21:25:27.493Z,11.00
2023-01-04T21:27:54.391Z,11.00
2023-01-04T21:30:21.391Z,11.10
2023-01-04T21:32:48.144Z,11.10
2023-01-04T21:35:15.235Z,11.10
2023-01-04T21:37:42.085Z,11.10
2023-01-04T21:40:09.437Z,11.20
2023-01-04T21:42:36.209Z,11.20
2023-01-04T21:45:03.165Z,11.20
2023-01-04T21:47:31.371Z,11.20
2023-01-04T21:49:58.111Z,11.10
2023-01-04T21:52:25.517Z,11.10
2023-01-04T21:54:52.307Z,11.10
2023-01-04T21:57:19.651Z,11.00
2023-01-04T21:59:46.442Z,11.00
2023-01-04T22:02:18.888Z,10.90
2023-01-04T22:04:46.578Z,10.90
2023-01-04T22:07:13.585Z,10.90
2023-01-04T22:09:40.582Z,10.90
2023-01-04T22:12:07.617Z,10.80
2023-01-04T22:14:34.791Z,10.80
2023-01-04T22:17:01.577Z,10.80
2023-01-04T22:19:28.515Z,10.70
2023-01-04T22:21:55.484Z,10.60
2023-01-04T22:24:22.262Z,10.60
2023-01-04T22:26:50.606Z,10.50
2023-01-04T22:29:17.430Z,10.40
2023-01-04T22:31:44.128Z,10.40
2023-01-04T22:34:10.844Z,10.30
2023-01-04T22:36:37.600Z,10.30
2023-01-04T22:39:04.993Z,10.20
2023-01-04T22:41:31.672Z,10.20
2023-01-04T22:44:04.391Z,10.10
2023-01-04T22:46:32.550Z,10.00
2023-01-04T22:49:00.864Z,10.00
2023-01-04T22:51:28.986Z,9.90
2023-01-04T22:54:01.301Z,9.90
2023-01-04T22:56:29.094Z,9.80
2023-01-04T22:58:57.178Z,9.80
2023-01-04T23:01:29.054Z,9.80
2023-01-04T23:03:57.204Z,9.70
2023-01-04T23:06:25.332Z,9.70
2023-01-04T23:08:57.562Z,9.70
2023-01-04T23:11:25.168Z,9.70
2023-01-04T23:13:52.531Z,9.70
2023-01-04T23:16:21.806Z,9.70
2023-01-04T23:18:50.459Z,9.70
2023-01-04T23:21:17.402Z,9.80
2023-01-04T23:23:47.938Z,9.80
2023-01-04T23:26:17.686Z,9.80
2023-01-04T23:28:45.516Z,9.80
2023-01-04T23:31:15.319Z,9.90
2023-01-04T23:33:42.131Z,9.90
2023-01-04T23:36:14.681Z,10.00
2023-01-04T23:38:42.923Z,10.00
2023-01-04T23:41:11.418Z,10.00
2023-01-04T23:43:39.053Z,10.00
2023-01-04T23:46:12.004Z,10.00
2023-01-04T23:48:38.733Z,10.10
2023-01-04T23:51:05.970Z,10.10
2023-01-04T23:53:32.908Z,10.20
2023-01-04T23:56:03.146Z,10.20
2023-01-04T23:58:31.333Z,10.20
